Terminal Aerodrome Forecast
Issued by NWS

Home | Current Version | Previous Version | Text Only | Print | Product List | Glossary On
Versions: 1 2 3 4 5 6 7 8 9 10 11 12 13 14 15 16 17 18 19 20 21 22 23
000
FTUS43 KPAH 311130
TAFOWB
TAF
KOWB 311130Z 3112/0112 33003KT P6SM FEW300
     FM311500 34007KT P6SM FEW300
     FM010100 32002KT P6SM FEW300=

USA.gov is the U.S. government's official web portal to all federal, state and local government web resources and services.